createdAt,value
2019-02-15T00:00:58.863Z,11.85
2019-02-15T00:03:27.284Z,13.18
2019-02-15T00:05:56.047Z,12.07
2019-02-15T00:08:24.577Z,11.43
2019-02-15T00:10:53.012Z,11.00
2019-02-15T00:13:21.440Z,11.17
2019-02-15T00:15:49.949Z,11.50
2019-02-15T00:18:36.430Z,11.13
2019-02-15T00:21:06.507Z,11.53
2019-02-15T00:23:34.917Z,12.57
2019-02-15T00:26:03.352Z,13.00
2019-02-15T00:28:31.784Z,12.40
2019-02-15T00:31:00.217Z,10.83
2019-02-15T00:33:28.649Z,11.60
2019-02-15T00:35:57.080Z,11.10
2019-02-15T00:38:25.508Z,11.47
2019-02-15T00:40:53.941Z,12.53
2019-02-15T00:43:22.611Z,11.63
2019-02-15T00:46:10.773Z,10.95
2019-02-15T00:48:39.536Z,11.95
2019-02-15T00:51:18.369Z,12.18
2019-02-15T00:53:51.458Z,12.18
2019-02-15T00:56:21.536Z,10.65
2019-02-15T00:58:54.281Z,11.60
2019-02-15T01:01:40.872Z,11.47
2019-02-15T01:04:10.925Z,11.17
2019-02-15T01:06:47.001Z,11.80
2019-02-15T01:09:33.492Z,11.57
2019-02-15T01:12:06.641Z,11.03
2019-02-15T01:14:35.076Z,11.00
2019-02-15T01:17:03.998Z,10.65
2019-02-15T01:19:32.413Z,11.13
2019-02-15T01:22:00.851Z,10.87
2019-02-15T01:24:29.260Z,10.20
2019-02-15T01:26:59.341Z,11.22
2019-02-15T01:29:38.730Z,9.80
2019-02-15T01:32:11.793Z,10.83
2019-02-15T01:34:47.737Z,11.18
2019-02-15T01:37:17.806Z,10.77
2019-02-15T01:39:47.884Z,10.43
2019-02-15T01:42:34.290Z,11.33
2019-02-15T01:45:10.466Z,10.30
2019-02-15T01:47:40.185Z,10.68
2019-02-15T01:50:08.768Z,10.57
2019-02-15T01:52:37.519Z,10.63
2019-02-15T01:55:06.579Z,10.70
2019-02-15T01:57:35.326Z,10.33
2019-02-15T02:00:06.945Z,10.20
2019-02-15T02:02:35.386Z,11.07
2019-02-15T02:05:04.458Z,11.20
2019-02-15T02:07:32.885Z,10.63
2019-02-15T02:10:01.436Z,11.13
2019-02-15T02:12:29.863Z,10.80
2019-02-15T02:14:58.403Z,10.27
2019-02-15T02:17:26.853Z,10.13
2019-02-15T02:19:55.344Z,10.33
2019-02-15T02:22:23.768Z,11.40
2019-02-15T02:24:52.201Z,10.50
2019-02-15T02:27:20.633Z,11.47
2019-02-15T02:29:49.060Z,10.70
2019-02-15T02:32:17.496Z,12.33
2019-02-15T02:34:45.927Z,11.60
2019-02-15T02:37:14.369Z,10.70
2019-02-15T02:39:42.789Z,10.70
2019-02-15T02:42:11.208Z,11.00
2019-02-15T02:44:45.661Z,11.10
2019-02-15T02:47:14.073Z,10.40
2019-02-15T02:49:42.501Z,11.63
2019-02-15T02:52:10.929Z,11.10
2019-02-15T02:54:39.372Z,11.50
2019-02-15T02:57:07.798Z,11.63
2019-02-15T02:59:36.568Z,10.90
2019-02-15T03:02:05.038Z,11.87
2019-02-15T03:04:33.470Z,12.37
2019-02-15T03:07:01.904Z,12.57
2019-02-15T03:09:30.668Z,12.20
2019-02-15T03:11:59.088Z,11.93
2019-02-15T03:14:27.531Z,11.00
2019-02-15T03:16:55.945Z,11.70
2019-02-15T03:19:24.468Z,12.27
2019-02-15T03:21:52.966Z,12.20
2019-02-15T03:24:21.465Z,12.37
2019-02-15T03:26:49.890Z,11.43
2019-02-15T03:29:18.330Z,12.77
2019-02-15T03:31:46.755Z,12.57
2019-02-15T03:34:15.273Z,12.43
2019-02-15T03:36:57.352Z,11.17
2019-02-15T03:39:27.426Z,12.03
2019-02-15T03:41:55.849Z,11.20
2019-02-15T03:44:24.570Z,10.93
2019-02-15T03:46:53.004Z,11.70
2019-02-15T03:49:21.445Z,11.67
2019-02-15T03:51:49.870Z,10.60
2019-02-15T03:54:18.306Z,10.60
2019-02-15T03:56:46.727Z,11.53
2019-02-15T03:59:15.247Z,10.80
2019-02-15T04:01:43.736Z,10.20
2019-02-15T04:04:12.176Z,9.23
2019-02-15T04:06:40.599Z,9.53
2019-02-15T04:09:09.030Z,8.87
2019-02-15T04:11:37.529Z,9.18
2019-02-15T04:14:06.237Z,10.20
2019-02-15T04:16:34.666Z,9.17
2019-02-15T04:19:03.094Z,9.37
2019-02-15T04:21:31.534Z,9.10
2019-02-15T04:23:59.987Z,9.10
2019-02-15T04:26:28.414Z,9.53
2019-02-15T04:28:56.843Z,8.87
2019-02-15T04:31:25.269Z,9.80
2019-02-15T04:34:13.026Z,9.55
2019-02-15T04:36:41.773Z,10.25
2019-02-15T04:39:10.228Z,9.73
2019-02-15T04:41:38.765Z,10.40
2019-02-15T04:44:07.201Z,10.40
2019-02-15T04:46:35.625Z,10.60
2019-02-15T04:49:04.071Z,10.43
2019-02-15T04:51:32.558Z,10.57
2019-02-15T04:54:01.006Z,11.50
2019-02-15T04:56:29.436Z,11.27
2019-02-15T04:58:57.861Z,10.70
2019-02-15T05:01:26.310Z,10.93
2019-02-15T05:03:54.721Z,10.97
2019-02-15T05:06:23.161Z,11.10
2019-02-15T05:08:51.577Z,10.73
2019-02-15T05:11:20.016Z,10.13
2019-02-15T05:13:48.435Z,11.23
2019-02-15T05:16:16.882Z,10.63
2019-02-15T05:18:45.310Z,10.90
2019-02-15T05:21:13.742Z,9.80
2019-02-15T05:23:42.228Z,10.70
2019-02-15T05:26:10.665Z,10.43
2019-02-15T05:28:39.100Z,10.97
2019-02-15T05:31:07.534Z,11.23
2019-02-15T05:33:35.957Z,9.73
2019-02-15T05:36:04.398Z,10.70
2019-02-15T05:38:32.929Z,11.78
2019-02-15T05:41:01.366Z,11.10
2019-02-15T05:43:30.045Z,11.33
2019-02-15T05:45:58.510Z,10.83
2019-02-15T05:48:26.930Z,10.83
2019-02-15T05:50:55.372Z,11.18
2019-02-15T05:53:23.790Z,11.70
2019-02-15T05:55:52.215Z,11.13
2019-02-15T05:58:20.649Z,10.53
2019-02-15T06:00:49.075Z,10.87
2019-02-15T06:03:17.508Z,10.77
2019-02-15T06:05:45.928Z,12.07
2019-02-15T06:08:14.358Z,11.07
2019-02-15T06:10:42.784Z,11.03
2019-02-15T06:13:11.230Z,11.57
2019-02-15T06:15:39.657Z,12.78
2019-02-15T06:18:08.374Z,12.50
2019-02-15T06:20:36.794Z,12.05
2019-02-15T06:23:05.536Z,12.53
2019-02-15T06:25:33.955Z,13.67
2019-02-15T06:28:02.398Z,20.10
2019-02-15T06:30:30.830Z,13.83
2019-02-15T06:32:59.256Z,11.53
2019-02-15T06:35:27.684Z,9.23
2019-02-15T06:37:56.422Z,9.28
2019-02-15T06:40:24.842Z,9.58
2019-02-15T06:42:53.274Z,8.08
2019-02-15T06:45:25.066Z,8.28
2019-02-15T06:47:51.860Z,7.97
2019-02-15T06:50:20.281Z,9.43
2019-02-15T06:52:48.705Z,9.27
2019-02-15T06:55:17.128Z,8.85
2019-02-15T06:57:45.556Z,7.62
2019-02-15T07:00:24.698Z,9.03
2019-02-15T07:03:03.781Z,8.00
2019-02-15T07:05:32.205Z,8.07
2019-02-15T07:08:00.665Z,8.68
2019-02-15T07:10:29.105Z,9.20
2019-02-15T07:12:57.544Z,9.40
2019-02-15T07:15:33.401Z,8.83
2019-02-15T07:17:55.785Z,8.93
2019-02-15T07:20:24.221Z,9.70
2019-02-15T07:22:52.983Z,9.20
2019-02-15T07:25:21.149Z,9.78
2019-02-15T07:27:49.249Z,9.93
2019-02-15T07:30:17.679Z,9.50
2019-02-15T07:32:46.132Z,10.30
2019-02-15T07:35:14.554Z,10.13
2019-02-15T07:37:42.643Z,10.53
2019-02-15T07:40:11.143Z,9.93
2019-02-15T07:42:39.570Z,9.83
2019-02-15T07:45:10.138Z,9.87
2019-02-15T07:47:38.562Z,8.70
2019-02-15T07:50:12.549Z,9.65
2019-02-15T07:52:40.980Z,8.50
2019-02-15T07:55:09.242Z,8.75
2019-02-15T07:57:37.340Z,8.85
2019-02-15T08:00:13.812Z,8.78
2019-02-15T08:02:42.228Z,9.67
2019-02-15T08:05:11.295Z,9.55
2019-02-15T08:07:39.729Z,10.05
2019-02-15T08:10:10.386Z,9.60
2019-02-15T08:12:38.809Z,8.28
2019-02-15T08:15:10.126Z,7.83
2019-02-15T08:17:38.556Z,7.67
2019-02-15T08:20:11.217Z,8.03
2019-02-15T08:22:39.312Z,8.27
2019-02-15T08:25:08.064Z,7.53
2019-02-15T08:27:36.498Z,7.70
2019-02-15T08:30:07.450Z,7.20
2019-02-15T08:32:35.877Z,8.23
2019-02-15T08:35:05.594Z,8.00
2019-02-15T08:37:34.044Z,9.60
2019-02-15T08:40:02.460Z,9.77
2019-02-15T08:42:30.882Z,10.03
2019-02-15T08:44:58.974Z,11.30
2019-02-15T08:47:27.074Z,11.43
2019-02-15T08:49:55.169Z,10.93
2019-02-15T08:52:23.256Z,13.00
2019-02-15T08:54:51.416Z,12.77
2019-02-15T08:57:19.504Z,13.07
2019-02-15T08:59:48.032Z,12.13
2019-02-15T09:02:18.072Z,12.13
2019-02-15T09:04:46.508Z,12.43
2019-02-15T09:07:14.933Z,13.23
2019-02-15T09:09:43.379Z,14.43
2019-02-15T09:12:11.797Z,13.57
2019-02-15T09:14:40.220Z,13.97
2019-02-15T09:17:08.673Z,14.60
2019-02-15T09:19:37.108Z,17.73
2019-02-15T09:22:05.207Z,15.57
2019-02-15T09:24:33.297Z,16.13
2019-02-15T09:27:03.349Z,14.97
2019-02-15T09:29:31.784Z,15.40
2019-02-15T09:31:59.869Z,17.48
2019-02-15T09:34:28.301Z,16.20
2019-02-15T09:36:56.722Z,14.70
2019-02-15T09:39:25.162Z,14.63
2019-02-15T09:41:53.580Z,14.40
2019-02-15T09:44:22.049Z,13.10
2019-02-15T09:46:50.632Z,14.17
2019-02-15T09:49:20.458Z,13.80
2019-02-15T09:51:49.219Z,13.87
2019-02-15T09:54:17.640Z,15.23
2019-02-15T09:56:46.066Z,14.13
2019-02-15T09:59:14.503Z,13.90
2019-02-15T10:01:42.925Z,14.60
2019-02-15T10:04:11.349Z,14.83
2019-02-15T10:06:39.761Z,13.80
2019-02-15T10:09:08.212Z,13.73
2019-02-15T10:11:36.681Z,15.73
2019-02-15T10:14:05.425Z,12.77
2019-02-15T10:16:33.862Z,12.40
2019-02-15T10:19:02.268Z,11.83
2019-02-15T10:21:30.702Z,10.93
2019-02-15T10:23:59.117Z,11.20
2019-02-15T10:26:27.238Z,11.33
2019-02-15T10:28:55.601Z,11.50
2019-02-15T10:31:24.485Z,11.60
2019-02-15T10:33:52.897Z,10.87
2019-02-15T10:36:21.265Z,11.47
2019-02-15T10:38:49.680Z,10.40
2019-02-15T10:41:18.106Z,9.37
2019-02-15T10:43:46.789Z,9.97
2019-02-15T10:46:14.885Z,8.97
2019-02-15T10:48:42.968Z,9.03
2019-02-15T10:51:11.053Z,9.27
2019-02-15T10:53:39.141Z,9.17
2019-02-15T10:56:07.227Z,9.27
2019-02-15T10:58:35.313Z,8.63
2019-02-15T11:01:03.801Z,8.60
2019-02-15T11:03:32.213Z,7.90
2019-02-15T11:06:00.635Z,7.60
2019-02-15T11:08:29.041Z,8.07
2019-02-15T11:10:57.468Z,7.80
2019-02-15T11:13:25.868Z,7.63
2019-02-15T11:16:13.659Z,6.97
2019-02-15T11:18:42.080Z,7.47
2019-02-15T11:21:10.502Z,7.97
2019-02-15T11:23:38.913Z,7.17
2019-02-15T11:26:07.669Z,7.53
2019-02-15T11:28:36.081Z,7.43
2019-02-15T11:31:04.497Z,6.73
2019-02-15T11:33:32.902Z,7.40
2019-02-15T11:36:01.326Z,8.13
2019-02-15T11:38:30.071Z,7.60
2019-02-15T11:40:58.494Z,8.30
2019-02-15T11:43:26.906Z,8.17
2019-02-15T11:45:54.999Z,8.27
2019-02-15T11:48:23.081Z,6.90
2019-02-15T11:50:51.179Z,7.83
2019-02-15T11:53:19.589Z,7.47
2019-02-15T11:55:48.069Z,7.37
2019-02-15T11:58:16.497Z,6.60
2019-02-15T12:00:44.917Z,6.37
2019-02-15T12:03:12.987Z,5.40
2019-02-15T12:05:41.422Z,5.53
2019-02-15T12:08:09.823Z,5.53
2019-02-15T12:10:37.897Z,5.60
2019-02-15T12:13:06.308Z,5.77
2019-02-15T12:15:34.401Z,5.23
2019-02-15T12:18:02.821Z,6.23
2019-02-15T12:20:30.901Z,6.17
2019-02-15T12:22:59.335Z,5.87
2019-02-15T12:25:27.733Z,6.00
2019-02-15T12:27:56.167Z,6.13
2019-02-15T12:30:24.574Z,6.10
2019-02-15T12:32:52.988Z,6.60
2019-02-15T12:35:21.405Z,6.80
2019-02-15T12:37:49.838Z,6.90
2019-02-15T12:40:18.248Z,5.77
2019-02-15T12:42:46.685Z,5.27
2019-02-15T12:45:16.073Z,4.73
2019-02-15T12:47:44.493Z,5.47
2019-02-15T12:50:21.889Z,5.87
2019-02-15T12:52:50.646Z,5.50
2019-02-15T12:55:18.736Z,5.63
2019-02-15T12:57:47.214Z,5.77
2019-02-15T13:00:16.726Z,5.20
2019-02-15T13:02:45.145Z,5.20
2019-02-15T13:05:14.343Z,4.73
2019-02-15T13:07:42.844Z,5.03
2019-02-15T13:10:16.864Z,5.30
2019-02-15T13:12:45.578Z,4.80
2019-02-15T13:15:14.120Z,4.43
2019-02-15T13:17:42.544Z,4.63
2019-02-15T13:20:11.338Z,4.33
2019-02-15T13:22:39.508Z,4.35
2019-02-15T13:25:07.874Z,4.63
2019-02-15T13:27:36.578Z,4.57
2019-02-15T13:30:10.691Z,4.30
2019-02-15T13:32:39.185Z,3.97
2019-02-15T13:35:10.241Z,4.83
2019-02-15T13:37:38.673Z,4.60
2019-02-15T13:40:07.709Z,4.23
2019-02-15T13:42:36.133Z,4.30
2019-02-15T13:45:07.186Z,4.03
2019-02-15T13:47:35.323Z,4.50
2019-02-15T13:50:05.683Z,4.63
2019-02-15T13:52:39.837Z,4.60
2019-02-15T13:55:14.143Z,4.07
2019-02-15T13:57:42.508Z,4.70
2019-02-15T14:00:14.215Z,4.33
2019-02-15T14:02:42.697Z,5.10
2019-02-15T14:05:18.498Z,3.70
2019-02-15T14:07:46.920Z,4.70
2019-02-15T14:10:15.507Z,4.30
2019-02-15T14:12:43.968Z,4.70
2019-02-15T14:15:12.826Z,4.40
2019-02-15T14:18:00.263Z,4.97
2019-02-15T14:20:29.111Z,3.97
2019-02-15T14:22:57.535Z,4.37
2019-02-15T14:25:25.945Z,4.10
2019-02-15T14:27:54.576Z,4.20
2019-02-15T14:30:22.994Z,3.80
2019-02-15T14:32:51.769Z,3.57
2019-02-15T14:35:20.206Z,3.90
2019-02-15T14:37:48.913Z,3.17
2019-02-15T14:40:17.678Z,3.90
2019-02-15T14:42:46.368Z,3.77
2019-02-15T14:45:15.017Z,3.33
2019-02-15T14:47:43.500Z,3.10
2019-02-15T14:50:11.995Z,2.80
2019-02-15T14:52:40.837Z,3.03
2019-02-15T14:55:10.405Z,3.73
2019-02-15T14:57:38.877Z,3.63
2019-02-15T15:00:12.633Z,2.00
2019-02-15T15:02:41.499Z,1.17
2019-02-15T15:05:12.437Z,1.37
2019-02-15T15:07:41.162Z,1.07
2019-02-15T15:10:10.907Z,1.17
2019-02-15T15:12:39.331Z,0.90
2019-02-15T15:15:27.161Z,1.00
2019-02-15T15:18:05.841Z,0.90
2019-02-15T15:20:26.133Z,1.30
2019-02-15T15:22:55.112Z,1.00
2019-02-15T15:25:23.514Z,1.17
2019-02-15T15:27:52.319Z,1.33
2019-02-15T15:30:21.097Z,0.80
2019-02-15T15:32:49.899Z,1.00
2019-02-15T15:35:18.391Z,1.10
2019-02-15T15:37:47.169Z,1.43
2019-02-15T15:40:17.277Z,1.07
2019-02-15T15:42:46.114Z,1.37
2019-02-15T15:45:14.596Z,1.30
2019-02-15T15:47:42.997Z,1.40
2019-02-15T15:50:12.904Z,1.30
2019-02-15T15:52:41.317Z,1.10
2019-02-15T15:55:13.616Z,1.23
2019-02-15T15:57:42.273Z,1.30
2019-02-15T16:00:14.027Z,1.33
2019-02-15T16:02:42.546Z,2.03
2019-02-15T16:05:11.403Z,1.90
2019-02-15T16:07:39.805Z,1.80
2019-02-15T16:10:15.099Z,1.90
2019-02-15T16:12:43.502Z,1.50
2019-02-15T16:15:13.216Z,1.63
2019-02-15T16:17:41.828Z,1.70
2019-02-15T16:20:12.165Z,1.60
2019-02-15T16:23:00.197Z,1.63
2019-02-15T16:25:48.054Z,1.70
2019-02-15T16:28:16.896Z,1.43
2019-02-15T16:30:45.879Z,1.87
2019-02-15T16:33:14.648Z,1.50
2019-02-15T16:35:43.428Z,1.63
2019-02-15T16:38:12.205Z,1.43
2019-02-15T16:40:41.875Z,1.80
2019-02-15T16:43:10.775Z,1.70
2019-02-15T16:45:39.201Z,2.13
2019-02-15T16:48:07.732Z,1.60
2019-02-15T16:50:36.153Z,2.07
2019-02-15T16:53:04.693Z,2.37
2019-02-15T16:55:33.276Z,2.40
2019-02-15T16:58:01.678Z,2.40
2019-02-15T17:00:30.314Z,2.40
2019-02-15T17:02:59.103Z,2.50
2019-02-15T17:05:27.530Z,2.73
2019-02-15T17:07:56.414Z,2.20
2019-02-15T17:10:25.317Z,2.20
2019-02-15T17:12:54.165Z,2.10
2019-02-15T17:15:22.617Z,2.57
2019-02-15T17:17:51.843Z,2.53
2019-02-15T17:20:20.666Z,4.57
2019-02-15T17:22:49.077Z,3.40
2019-02-15T17:25:17.507Z,3.73
2019-02-15T17:27:47.039Z,5.60
2019-02-15T17:30:15.479Z,5.87
2019-02-15T17:33:03.518Z,5.00
2019-02-15T17:35:31.947Z,4.77
2019-02-15T17:38:00.363Z,3.63
2019-02-15T17:40:29.132Z,3.17
2019-02-15T17:42:58.516Z,2.80
2019-02-15T17:45:27.650Z,3.57
2019-02-15T17:47:56.065Z,4.57
2019-02-15T17:50:24.727Z,4.97
2019-02-15T17:52:53.144Z,4.80
2019-02-15T17:55:21.634Z,5.63
2019-02-15T17:57:50.341Z,7.47
2019-02-15T18:00:20.917Z,8.40
2019-02-15T18:02:49.907Z,9.10
2019-02-15T18:05:18.815Z,9.07
2019-02-15T18:07:50.573Z,8.47
2019-02-15T18:10:19.605Z,7.53
2019-02-15T18:12:48.025Z,7.47
2019-02-15T18:15:17.106Z,7.77
2019-02-15T18:17:45.668Z,6.97
2019-02-15T18:20:15.403Z,6.90
2019-02-15T18:22:45.243Z,6.30
2019-02-15T18:25:13.852Z,6.77
2019-02-15T18:27:42.787Z,6.73
2019-02-15T18:30:14.237Z,6.47
2019-02-15T18:32:42.694Z,6.53
2019-02-15T18:35:11.106Z,6.43
2019-02-15T18:37:39.541Z,5.97
2019-02-15T18:40:10.689Z,7.17
2019-02-15T18:42:39.778Z,6.60
2019-02-15T18:45:11.783Z,7.43
2019-02-15T18:47:40.540Z,7.00
2019-02-15T18:50:10.350Z,7.23
2019-02-15T18:52:38.798Z,7.70
2019-02-15T18:55:08.889Z,7.87
2019-02-15T18:57:37.379Z,8.87
2019-02-15T19:00:25.463Z,9.20
2019-02-15T19:02:54.153Z,8.47
2019-02-15T19:05:22.646Z,7.80
2019-02-15T19:07:51.516Z,7.57
2019-02-15T19:10:24.249Z,8.93
2019-02-15T19:12:52.852Z,8.37
2019-02-15T19:15:21.342Z,8.10
2019-02-15T19:17:50.046Z,7.63
2019-02-15T19:20:18.945Z,7.83
2019-02-15T19:22:47.605Z,7.13
2019-02-15T19:25:20.414Z,7.83
2019-02-15T19:27:48.901Z,8.43
2019-02-15T19:30:23.629Z,8.50
2019-02-15T19:32:52.665Z,8.33
2019-02-15T19:35:21.158Z,8.00
2019-02-15T19:37:49.626Z,8.77
2019-02-15T19:40:20.463Z,8.80
2019-02-15T19:42:55.021Z,8.80
2019-02-15T19:45:24.425Z,9.67
2019-02-15T19:47:52.933Z,8.97
2019-02-15T19:50:21.356Z,8.23
2019-02-15T19:52:50.371Z,9.43
2019-02-15T19:55:19.046Z,11.17
2019-02-15T19:57:47.461Z,7.87
2019-02-15T20:00:17.922Z,9.43
2019-02-15T20:02:47.117Z,9.67
2019-02-15T20:05:15.727Z,9.60
2019-02-15T20:07:45.015Z,10.57
2019-02-15T20:10:16.146Z,9.63
2019-02-15T20:12:44.588Z,9.63
2019-02-15T20:15:14.047Z,15.17
2019-02-15T20:17:43.239Z,14.47
2019-02-15T20:20:13.497Z,11.70
2019-02-15T20:22:42.140Z,17.03
2019-02-15T20:25:13.018Z,12.70
2019-02-15T20:27:41.670Z,11.53
2019-02-15T20:30:23.254Z,13.00
2019-02-15T20:32:52.517Z,11.53
2019-02-15T20:35:20.996Z,12.20
2019-02-15T20:37:49.416Z,10.37
2019-02-15T20:40:18.605Z,10.53
2019-02-15T20:42:47.439Z,10.23
2019-02-15T20:45:22.987Z,9.23
2019-02-15T20:47:52.121Z,9.87
2019-02-15T20:50:21.646Z,10.50
2019-02-15T20:52:50.107Z,10.17
2019-02-15T20:55:19.879Z,11.30
2019-02-15T20:57:48.999Z,11.17
2019-02-15T21:00:25.817Z,11.07
2019-02-15T21:02:54.907Z,9.77
2019-02-15T21:05:23.421Z,9.20
2019-02-15T21:07:52.588Z,8.90
2019-02-15T21:10:21.770Z,8.97
2019-02-15T21:12:51.594Z,11.17
2019-02-15T21:15:20.933Z,10.70
2019-02-15T21:17:50.314Z,11.37
2019-02-15T21:20:18.760Z,11.03
2019-02-15T21:22:48.300Z,10.40
2019-02-15T21:25:17.682Z,11.30
2019-02-15T21:27:46.675Z,11.63
2019-02-15T21:30:19.084Z,10.50
2019-02-15T21:32:48.025Z,10.93
2019-02-15T21:35:16.452Z,10.70
2019-02-15T21:37:44.875Z,10.30
2019-02-15T21:40:17.820Z,11.83
2019-02-15T21:42:47.960Z,10.50
2019-02-15T21:45:16.902Z,11.60
2019-02-15T21:47:45.362Z,11.13
2019-02-15T21:50:17.774Z,11.23
2019-02-15T21:52:44.798Z,11.87
2019-02-15T21:55:15.185Z,11.13
2019-02-15T21:57:43.707Z,11.67
2019-02-15T22:00:23.452Z,11.17
2019-02-15T22:02:52.769Z,11.43
2019-02-15T22:05:21.284Z,11.73
2019-02-15T22:07:50.399Z,11.37
2019-02-15T22:10:18.809Z,10.33
2019-02-15T22:12:47.902Z,10.03
2019-02-15T22:15:17.437Z,10.27
2019-02-15T22:17:45.864Z,10.00
2019-02-15T22:20:15.862Z,10.27
2019-02-15T22:22:44.696Z,11.10
2019-02-15T22:25:13.899Z,10.63
2019-02-15T22:27:42.533Z,10.70
2019-02-15T22:30:18.746Z,10.00
2019-02-15T22:32:47.672Z,11.70
2019-02-15T22:35:16.157Z,11.30
2019-02-15T22:37:44.599Z,11.53
2019-02-15T22:40:27.814Z,11.50
2019-02-15T22:42:58.445Z,10.97
2019-02-15T22:45:27.169Z,9.93
2019-02-15T22:47:55.604Z,11.03
2019-02-15T22:50:24.031Z,10.60
2019-02-15T22:52:52.462Z,9.63
2019-02-15T22:55:21.688Z,10.17
2019-02-15T22:57:50.186Z,10.17
2019-02-15T23:00:47.601Z,9.57
2019-02-15T23:03:18.105Z,9.40
2019-02-15T23:05:46.949Z,9.57
2019-02-15T23:08:27.493Z,9.47
2019-02-15T23:10:55.951Z,9.93
2019-02-15T23:13:24.042Z,9.00
2019-02-15T23:15:52.833Z,8.50
2019-02-15T23:18:20.926Z,9.07
2019-02-15T23:20:49.005Z,9.67
2019-02-15T23:23:17.105Z,8.87
2019-02-15T23:25:45.501Z,9.07
2019-02-15T23:28:13.605Z,9.07
2019-02-15T23:30:42.024Z,9.00
2019-02-15T23:33:10.728Z,9.53
2019-02-15T23:35:39.139Z,9.23
2019-02-15T23:38:07.933Z,8.13
2019-02-15T23:40:36.350Z,9.43
2019-02-15T23:43:04.828Z,9.27
2019-02-15T23:45:32.968Z,9.70
2019-02-15T23:48:01.064Z,10.13
2019-02-15T23:50:29.160Z,11.43
2019-02-15T23:52:57.255Z,11.17
2019-02-15T23:55:25.668Z,11.30
2019-02-15T23:57:53.763Z,10.87
